createdAt,value
2023-05-14T00:00:47.892Z,6.88
2023-05-14T00:03:20.582Z,5.30
2023-05-14T00:05:53.117Z,6.35
2023-05-14T00:08:25.559Z,6.55
2023-05-14T00:10:58.076Z,5.70
2023-05-14T00:13:30.550Z,6.00
2023-05-14T00:16:03.258Z,5.78
2023-05-14T00:18:35.804Z,5.82
2023-05-14T00:21:08.317Z,5.80
2023-05-14T00:23:40.824Z,5.38
2023-05-14T00:26:13.229Z,5.57
2023-05-14T00:28:45.762Z,5.72
2023-05-14T00:31:18.259Z,5.88
2023-05-14T00:33:50.815Z,5.75
2023-05-14T00:36:23.218Z,6.47
2023-05-14T00:38:55.953Z,6.93
2023-05-14T00:41:28.413Z,6.25
2023-05-14T00:44:00.927Z,7.05
2023-05-14T00:46:34.634Z,6.88
2023-05-14T00:49:07.148Z,6.53
2023-05-14T00:51:41.503Z,6.55
2023-05-14T00:54:22.676Z,6.50
2023-05-14T00:56:55.637Z,6.35
2023-05-14T00:59:28.132Z,5.90
2023-05-14T01:02:00.714Z,7.05
2023-05-14T01:04:35.179Z,6.82
2023-05-14T01:07:35.456Z,7.07
2023-05-14T01:10:23.531Z,6.75
2023-05-14T01:13:13.014Z,7.53
2023-05-14T01:15:48.091Z,7.35
2023-05-14T01:18:21.977Z,7.32
2023-05-14T01:20:54.649Z,7.28
2023-05-14T01:23:27.121Z,7.75
2023-05-14T01:25:59.644Z,7.68
2023-05-14T01:28:35.656Z,8.13
2023-05-14T01:31:18.350Z,7.40
2023-05-14T01:33:52.356Z,7.88
2023-05-14T01:36:25.466Z,7.95
2023-05-14T01:38:58.879Z,7.63
2023-05-14T01:41:32.834Z,8.38
2023-05-14T01:44:06.030Z,8.02
2023-05-14T01:46:38.765Z,8.30
2023-05-14T01:49:11.261Z,8.27
2023-05-14T01:51:43.948Z,8.60
2023-05-14T01:54:16.399Z,7.80
2023-05-14T01:56:48.793Z,7.80
2023-05-14T01:59:21.253Z,7.55
2023-05-14T02:01:53.839Z,9.02
2023-05-14T02:04:26.539Z,8.52
2023-05-14T02:06:59.075Z,8.25
2023-05-14T02:09:31.555Z,8.63
2023-05-14T02:12:04.267Z,8.18
2023-05-14T02:14:36.973Z,9.30
2023-05-14T02:17:09.454Z,8.60
2023-05-14T02:19:42.182Z,9.20
2023-05-14T02:22:14.596Z,9.20
2023-05-14T02:24:47.012Z,9.48
2023-05-14T02:27:19.487Z,8.65
2023-05-14T02:29:52.759Z,8.45
2023-05-14T02:32:25.418Z,8.98
2023-05-14T02:34:57.883Z,8.30
2023-05-14T02:37:30.387Z,8.80
2023-05-14T02:40:04.149Z,9.10
2023-05-14T02:42:36.538Z,9.60
2023-05-14T02:45:09.256Z,9.73
2023-05-14T02:47:42.156Z,9.27
2023-05-14T02:50:14.607Z,8.93
2023-05-14T02:52:47.065Z,8.73
2023-05-14T02:55:19.688Z,9.60
2023-05-14T02:57:53.241Z,9.07
2023-05-14T03:00:25.840Z,9.93
2023-05-14T03:02:58.845Z,9.90
2023-05-14T03:05:31.608Z,9.63
2023-05-14T03:08:04.041Z,9.88
2023-05-14T03:10:37.057Z,8.63
2023-05-14T03:13:09.507Z,9.35
2023-05-14T03:15:41.957Z,10.43
2023-05-14T03:18:15.034Z,9.75
2023-05-14T03:20:47.814Z,9.82
2023-05-14T03:23:20.251Z,9.95
2023-05-14T03:25:52.747Z,9.75
2023-05-14T03:28:25.863Z,9.73
2023-05-14T03:30:58.522Z,10.10
2023-05-14T03:33:31.184Z,10.05
2023-05-14T03:36:03.839Z,10.20
2023-05-14T03:38:36.818Z,10.00
2023-05-14T03:41:09.238Z,10.32
2023-05-14T03:43:41.676Z,11.07
2023-05-14T03:46:14.088Z,10.70
2023-05-14T03:48:46.554Z,11.93
2023-05-14T03:51:19.095Z,11.88
2023-05-14T03:53:51.494Z,11.48
2023-05-14T03:56:24.862Z,11.20
2023-05-14T03:58:57.332Z,11.25
2023-05-14T04:01:29.775Z,11.88
2023-05-14T04:04:02.249Z,11.93
2023-05-14T04:06:34.788Z,12.25
2023-05-14T04:09:07.428Z,11.55
2023-05-14T04:11:39.892Z,12.50
2023-05-14T04:14:12.292Z,10.90
2023-05-14T04:16:44.735Z,10.95
2023-05-14T04:19:17.362Z,10.25
2023-05-14T04:21:49.984Z,12.10
2023-05-14T04:24:22.551Z,11.55
2023-05-14T04:26:54.989Z,12.35
2023-05-14T04:29:27.450Z,12.80
2023-05-14T04:32:00.451Z,11.65
2023-05-14T04:34:32.972Z,12.15
2023-05-14T04:37:05.488Z,11.82
2023-05-14T04:39:38.332Z,11.82
2023-05-14T04:42:10.869Z,11.07
2023-05-14T04:44:43.309Z,11.57
2023-05-14T04:47:15.765Z,13.40
2023-05-14T04:49:48.451Z,15.55
2023-05-14T04:52:20.970Z,15.45
2023-05-14T04:54:53.550Z,17.77
2023-05-14T04:57:26.068Z,14.98
2023-05-14T04:59:58.459Z,11.52
2023-05-14T05:02:30.935Z,10.02
2023-05-14T05:05:04.241Z,10.23
2023-05-14T05:07:36.749Z,10.15
2023-05-14T05:10:09.533Z,11.65
2023-05-14T05:12:42.032Z,11.30
2023-05-14T05:15:14.596Z,10.50
2023-05-14T05:17:47.138Z,11.25
2023-05-14T05:20:19.611Z,9.93
2023-05-14T05:22:52.235Z,10.50
2023-05-14T05:25:24.706Z,10.95
2023-05-14T05:27:57.123Z,10.55
2023-05-14T05:30:30.202Z,11.48
2023-05-14T05:33:02.771Z,10.90
2023-05-14T05:35:35.324Z,9.68
2023-05-14T05:38:07.791Z,9.98
2023-05-14T05:40:40.240Z,10.80
2023-05-14T05:43:13.834Z,9.48
2023-05-14T05:45:46.324Z,9.40
2023-05-14T05:48:19.001Z,10.40
2023-05-14T05:50:51.859Z,10.45
2023-05-14T05:53:24.306Z,10.45
2023-05-14T05:55:56.737Z,10.15
2023-05-14T05:58:29.544Z,9.85
2023-05-14T06:01:02.453Z,9.20
2023-05-14T06:03:35.385Z,9.65
2023-05-14T06:06:08.112Z,9.73
2023-05-14T06:08:40.600Z,8.95
2023-05-14T06:11:13.148Z,9.63
2023-05-14T06:13:45.587Z,10.00
2023-05-14T06:16:18.173Z,10.57
2023-05-14T06:18:52.299Z,10.75
2023-05-14T06:21:24.993Z,9.43
2023-05-14T06:23:57.456Z,9.43
2023-05-14T06:26:29.919Z,10.48
2023-05-14T06:29:02.449Z,10.05
2023-05-14T06:31:34.846Z,9.15
2023-05-14T06:34:08.096Z,9.75
2023-05-14T06:36:40.674Z,9.00
2023-05-14T06:39:13.235Z,9.40
2023-05-14T06:41:45.685Z,9.27
2023-05-14T06:44:19.509Z,8.88
2023-05-14T06:46:51.998Z,9.45
2023-05-14T06:49:24.468Z,9.05
2023-05-14T06:51:56.900Z,9.88
2023-05-14T06:54:30.050Z,8.75
2023-05-14T06:57:02.460Z,8.55
2023-05-14T06:59:34.866Z,8.50
2023-05-14T07:02:07.348Z,8.90
2023-05-14T07:04:39.859Z,9.02
2023-05-14T07:07:15.385Z,8.10
2023-05-14T07:09:48.248Z,9.23
2023-05-14T07:12:20.754Z,9.60
2023-05-14T07:14:53.327Z,8.40
2023-05-14T07:17:26.045Z,8.85
2023-05-14T07:19:58.553Z,9.10
2023-05-14T07:22:30.988Z,8.63
2023-05-14T07:25:03.486Z,8.57
2023-05-14T07:27:35.961Z,9.35
2023-05-14T07:30:08.738Z,8.30
2023-05-14T07:32:41.161Z,8.70
2023-05-14T07:35:14.163Z,7.70
2023-05-14T07:37:46.798Z,8.65
2023-05-14T07:40:19.376Z,8.38
2023-05-14T07:42:51.805Z,8.25
2023-05-14T07:45:24.288Z,8.90
2023-05-14T07:47:56.723Z,8.48
2023-05-14T07:50:29.160Z,7.10
2023-05-14T07:53:01.575Z,8.73
2023-05-14T07:55:33.972Z,8.23
2023-05-14T07:58:06.611Z,7.50
2023-05-14T08:00:39.169Z,8.07
2023-05-14T08:03:11.631Z,8.02
2023-05-14T08:05:44.138Z,7.93
2023-05-14T08:08:17.054Z,8.48
2023-05-14T08:10:49.558Z,8.95
2023-05-14T08:13:22.118Z,8.65
2023-05-14T08:15:54.806Z,7.45
2023-05-14T08:18:27.214Z,8.23
2023-05-14T08:20:59.685Z,8.35
2023-05-14T08:23:34.121Z,7.30
2023-05-14T08:26:06.664Z,7.40
2023-05-14T08:28:39.321Z,7.82
2023-05-14T08:31:17.477Z,7.75
2023-05-14T08:33:49.950Z,7.82
2023-05-14T08:36:22.487Z,8.07
2023-05-14T08:38:55.272Z,8.15
2023-05-14T08:41:27.659Z,7.55
2023-05-14T08:44:20.549Z,8.15
2023-05-14T08:46:54.633Z,7.45
2023-05-14T08:49:42.644Z,7.43
2023-05-14T08:52:18.003Z,7.35
2023-05-14T08:54:52.693Z,7.57
2023-05-14T08:57:26.571Z,7.55
2023-05-14T08:59:59.230Z,6.60
2023-05-14T09:02:31.733Z,7.15
2023-05-14T09:05:04.371Z,7.32
2023-05-14T09:07:36.837Z,6.75
2023-05-14T09:10:10.324Z,6.65
2023-05-14T09:12:42.811Z,7.47
2023-05-14T09:15:15.345Z,7.05
2023-05-14T09:17:50.969Z,7.05
2023-05-14T09:20:25.111Z,7.15
2023-05-14T09:22:59.979Z,5.85
2023-05-14T09:25:32.964Z,6.80
2023-05-14T09:28:08.421Z,7.40
2023-05-14T09:33:25.882Z,6.78
2023-05-14T09:35:59.880Z,7.10
2023-05-14T09:38:33.876Z,6.70
2023-05-14T09:41:06.346Z,6.93
2023-05-14T09:43:38.820Z,6.43
2023-05-14T09:46:11.308Z,6.65
2023-05-14T09:48:43.804Z,6.25
2023-05-14T09:51:17.643Z,5.38
2023-05-14T09:53:52.861Z,6.35
2023-05-14T09:56:25.282Z,6.07
2023-05-14T09:58:57.705Z,6.35
2023-05-14T10:01:31.038Z,5.68
2023-05-14T10:04:07.858Z,4.88
2023-05-14T10:06:42.137Z,4.97
2023-05-14T10:09:17.451Z,5.50
2023-05-14T10:11:53.874Z,5.10
2023-05-14T10:14:32.709Z,6.20
2023-05-14T10:17:06.385Z,5.15
2023-05-14T10:19:40.895Z,5.15
2023-05-14T10:22:17.969Z,6.07
2023-05-14T10:24:54.187Z,5.43
2023-05-14T10:27:26.901Z,5.55
2023-05-14T10:29:59.334Z,5.63
2023-05-14T10:32:33.118Z,4.65
2023-05-14T10:35:27.197Z,4.47
2023-05-14T10:37:59.650Z,3.97
2023-05-14T10:40:32.141Z,4.20
2023-05-14T10:43:05.156Z,4.47
2023-05-14T10:45:37.687Z,4.47
2023-05-14T10:48:10.600Z,3.80
2023-05-14T10:50:43.494Z,4.05
2023-05-14T10:53:16.063Z,4.40
2023-05-14T10:55:48.525Z,4.43
2023-05-14T10:58:21.074Z,4.88
2023-05-14T11:00:55.952Z,4.53
2023-05-14T11:03:32.646Z,4.93
2023-05-14T11:06:07.041Z,4.90
2023-05-14T11:08:40.235Z,4.40
2023-05-14T11:11:12.855Z,3.58
2023-05-14T11:13:45.845Z,3.97
2023-05-14T11:16:23.544Z,5.47
2023-05-14T11:19:04.384Z,4.35
2023-05-14T11:21:36.926Z,4.00
2023-05-14T11:24:09.468Z,4.35
2023-05-14T11:26:41.995Z,3.85
2023-05-14T11:29:14.489Z,4.10
2023-05-14T11:31:47.624Z,4.53
2023-05-14T11:34:20.073Z,4.72
2023-05-14T11:36:52.510Z,5.13
2023-05-14T11:39:24.956Z,4.25
2023-05-14T11:41:58.291Z,4.35
2023-05-14T11:44:31.929Z,4.10
2023-05-14T11:47:05.060Z,4.28
2023-05-14T11:49:37.965Z,4.18
2023-05-14T11:52:12.983Z,4.32
2023-05-14T11:54:46.016Z,3.95
2023-05-14T11:57:21.075Z,3.92
2023-05-14T11:59:57.655Z,3.75
2023-05-14T12:02:30.316Z,3.92
2023-05-14T12:05:03.049Z,3.35
2023-05-14T12:07:36.101Z,3.83
2023-05-14T12:10:08.962Z,3.75
2023-05-14T12:12:45.992Z,3.80
2023-05-14T12:15:18.454Z,3.47
2023-05-14T12:17:51.781Z,3.03
2023-05-14T12:20:26.164Z,3.67
2023-05-14T12:22:59.062Z,3.35
2023-05-14T12:25:31.562Z,2.55
2023-05-14T12:28:14.874Z,2.72
2023-05-14T12:30:47.411Z,2.35
2023-05-14T12:33:22.851Z,2.70
2023-05-14T12:36:09.998Z,2.75
2023-05-14T12:38:46.392Z,1.98
2023-05-14T12:41:18.880Z,2.17
2023-05-14T12:43:51.509Z,2.75
2023-05-14T12:46:27.040Z,2.40
2023-05-14T12:48:59.696Z,2.58
2023-05-14T12:51:32.572Z,2.95
2023-05-14T12:54:05.055Z,2.13
2023-05-14T12:56:39.035Z,1.80
2023-05-14T12:59:11.541Z,1.80
2023-05-14T13:01:43.982Z,1.67
2023-05-14T13:04:16.585Z,1.85
2023-05-14T13:06:49.162Z,1.90
2023-05-14T13:09:30.631Z,2.00
2023-05-14T13:14:36.408Z,1.90
2023-05-14T13:17:08.948Z,2.40
2023-05-14T13:19:41.514Z,2.47
2023-05-14T13:22:14.569Z,1.85
2023-05-14T13:24:47.020Z,2.05
2023-05-14T13:27:19.434Z,2.95
2023-05-14T13:29:52.061Z,2.88
2023-05-14T13:32:25.880Z,2.95
2023-05-14T13:34:58.395Z,2.72
2023-05-14T13:37:30.854Z,2.90
2023-05-14T13:40:04.423Z,2.92
2023-05-14T13:42:37.533Z,3.50
2023-05-14T13:45:11.627Z,2.90
2023-05-14T13:47:44.404Z,2.90
2023-05-14T13:50:17.035Z,2.45
2023-05-14T13:52:49.701Z,3.53
2023-05-14T13:55:24.541Z,3.35
2023-05-14T13:57:57.361Z,3.10
2023-05-14T14:00:29.796Z,2.50
2023-05-14T14:03:02.428Z,2.90
2023-05-14T14:05:35.965Z,2.53
2023-05-14T14:08:22.771Z,2.75
2023-05-14T14:10:56.128Z,2.65
2023-05-14T14:13:29.524Z,2.30
2023-05-14T14:16:03.502Z,2.40
2023-05-14T14:18:35.997Z,3.30
2023-05-14T14:21:09.308Z,2.42
2023-05-14T14:23:41.865Z,3.10
2023-05-14T14:26:14.446Z,3.30
2023-05-14T14:28:47.174Z,3.00
2023-05-14T14:31:20.835Z,2.97
2023-05-14T14:33:53.321Z,2.80
2023-05-14T14:36:25.714Z,2.83
2023-05-14T14:38:58.322Z,2.53
2023-05-14T14:41:30.808Z,3.03
2023-05-14T14:44:03.464Z,2.80
2023-05-14T14:46:36.121Z,2.83
2023-05-14T14:49:09.135Z,3.10
2023-05-14T14:51:42.375Z,2.95
2023-05-14T14:54:14.862Z,2.88
2023-05-14T14:56:49.122Z,2.63
2023-05-14T14:59:21.573Z,3.40
2023-05-14T15:01:53.946Z,3.13
2023-05-14T15:04:26.544Z,3.35
2023-05-14T15:06:59.209Z,2.85
2023-05-14T15:09:32.287Z,3.10
2023-05-14T15:12:09.418Z,3.30
2023-05-14T15:14:42.028Z,3.33
2023-05-14T15:17:14.545Z,3.92
2023-05-14T15:25:49.549Z,2.80
2023-05-14T15:28:26.892Z,2.85
2023-05-14T15:31:02.689Z,2.35
2023-05-14T15:33:38.386Z,2.40
2023-05-14T15:36:15.543Z,3.30
2023-05-14T15:38:50.867Z,3.67
2023-05-14T15:41:36.899Z,2.88
2023-05-14T15:44:15.748Z,2.70
2023-05-14T15:46:57.815Z,2.78
2023-05-14T15:49:32.351Z,2.90
2023-05-14T15:52:05.356Z,2.70
2023-05-14T15:54:53.220Z,2.42
2023-05-14T15:57:28.793Z,2.75
2023-05-14T16:00:05.016Z,2.55
2023-05-14T16:02:41.442Z,2.72
2023-05-14T16:05:27.440Z,3.13
2023-05-14T16:08:03.005Z,3.28
2023-05-14T16:10:46.644Z,2.72
2023-05-14T16:13:25.171Z,3.15
2023-05-14T16:15:59.684Z,3.03
2023-05-14T16:18:33.692Z,2.95
2023-05-14T16:21:07.426Z,3.30
2023-05-14T16:23:39.983Z,2.95
2023-05-14T16:26:12.465Z,3.15
2023-05-14T16:28:45.006Z,2.95
2023-05-14T16:31:17.518Z,3.28
2023-05-14T16:33:49.960Z,3.22
2023-05-14T16:36:26.453Z,2.67
2023-05-14T16:41:37.018Z,3.85
2023-05-14T16:44:12.502Z,3.53
2023-05-14T16:46:45.038Z,3.25
2023-05-14T16:49:17.539Z,3.35
2023-05-14T16:51:53.044Z,3.58
2023-05-14T16:54:25.647Z,3.60
2023-05-14T16:56:58.125Z,3.10
2023-05-14T16:59:30.654Z,3.67
2023-05-14T17:02:03.518Z,3.22
2023-05-14T17:04:39.337Z,3.63
2023-05-14T17:09:47.181Z,4.32
2023-05-14T17:12:19.698Z,3.75
2023-05-14T17:14:52.795Z,5.28
2023-05-14T17:17:25.367Z,5.20
2023-05-14T17:19:58.032Z,5.53
2023-05-14T17:22:30.515Z,5.43
2023-05-14T17:25:03.322Z,5.22
2023-05-14T17:27:36.202Z,5.20
2023-05-14T17:30:09.133Z,5.25
2023-05-14T17:32:41.781Z,6.38
2023-05-14T17:35:14.357Z,6.32
2023-05-14T17:37:46.852Z,5.63
2023-05-14T17:40:19.446Z,6.18
2023-05-14T17:42:51.916Z,7.85
2023-05-14T17:45:24.813Z,5.25
2023-05-14T17:47:57.676Z,4.88
2023-05-14T17:50:30.307Z,5.95
2023-05-14T17:53:02.723Z,5.63
2023-05-14T17:55:42.431Z,6.35
2023-05-14T17:58:15.944Z,5.90
2023-05-14T18:00:50.675Z,6.38
2023-05-14T18:03:23.186Z,5.95
2023-05-14T18:05:55.786Z,6.63
2023-05-14T18:08:28.267Z,7.07
2023-05-14T18:11:00.811Z,6.78
2023-05-14T18:13:33.363Z,7.60
2023-05-14T18:16:05.880Z,6.65
2023-05-14T18:18:38.425Z,6.47
2023-05-14T18:21:10.921Z,6.32
2023-05-14T18:23:43.452Z,6.43
2023-05-14T18:26:16.127Z,5.80
2023-05-14T18:28:48.970Z,6.75
2023-05-14T18:31:21.531Z,6.20
2023-05-14T18:33:54.269Z,6.43
2023-05-14T18:36:26.757Z,6.90
2023-05-14T18:38:59.226Z,6.30
2023-05-14T18:41:31.699Z,6.53
2023-05-14T18:44:04.221Z,6.75
2023-05-14T18:46:36.922Z,6.25
2023-05-14T18:49:09.458Z,6.43
2023-05-14T18:51:42.064Z,7.72
2023-05-14T18:54:14.581Z,7.50
2023-05-14T18:56:47.774Z,6.60
2023-05-14T18:59:20.539Z,7.18
2023-05-14T19:01:53.089Z,6.22
2023-05-14T19:04:26.467Z,6.53
2023-05-14T19:06:58.921Z,7.47
2023-05-14T19:09:31.425Z,7.38
2023-05-14T19:12:04.100Z,7.97
2023-05-14T19:14:36.597Z,7.07
2023-05-14T19:17:09.057Z,5.82
2023-05-14T19:19:41.699Z,6.30
2023-05-14T19:22:14.090Z,7.05
2023-05-14T19:24:46.534Z,7.85
2023-05-14T19:27:18.955Z,7.63
2023-05-14T19:29:51.555Z,7.00
2023-05-14T19:32:23.970Z,7.35
2023-05-14T19:34:56.577Z,7.40
2023-05-14T19:37:31.853Z,7.32
2023-05-14T19:40:04.858Z,7.85
2023-05-14T19:42:37.275Z,8.52
2023-05-14T19:45:10.185Z,7.05
2023-05-14T19:47:42.944Z,8.32
2023-05-14T19:50:15.887Z,7.40
2023-05-14T19:52:48.467Z,7.60
2023-05-14T19:55:21.034Z,7.57
2023-05-14T19:57:53.493Z,7.70
2023-05-14T20:00:26.487Z,8.13
2023-05-14T20:02:59.719Z,7.57
2023-05-14T20:05:34.221Z,7.85
2023-05-14T20:08:09.318Z,8.80
2023-05-14T20:10:44.502Z,8.15
2023-05-14T20:13:16.938Z,8.35
2023-05-14T20:15:49.487Z,7.97
2023-05-14T20:18:22.073Z,8.38
2023-05-14T20:20:54.796Z,8.38
2023-05-14T20:23:30.106Z,7.97
2023-05-14T20:26:04.112Z,9.15
2023-05-14T20:28:36.642Z,7.28
2023-05-14T20:31:09.650Z,8.40
2023-05-14T20:33:42.302Z,8.05
2023-05-14T20:36:16.748Z,8.18
2023-05-14T20:38:49.297Z,8.85
2023-05-14T20:41:22.457Z,9.88
2023-05-14T20:43:54.901Z,8.48
2023-05-14T20:46:30.083Z,9.07
2023-05-14T20:49:02.619Z,8.95
2023-05-14T20:51:35.061Z,9.35
2023-05-14T20:54:07.446Z,8.40
2023-05-14T20:56:39.894Z,8.38
2023-05-14T20:59:12.329Z,8.82
2023-05-14T21:01:47.137Z,7.90
2023-05-14T21:04:19.780Z,9.38
2023-05-14T21:06:52.816Z,9.82
2023-05-14T21:09:27.138Z,7.38
2023-05-14T21:11:59.841Z,9.15
2023-05-14T21:14:32.350Z,9.48
2023-05-14T21:17:05.125Z,8.40
2023-05-14T21:19:37.654Z,8.80
2023-05-14T21:22:10.242Z,9.07
2023-05-14T21:24:44.970Z,8.60
2023-05-14T21:27:17.484Z,8.25
2023-05-14T21:29:49.937Z,8.95
2023-05-14T21:32:22.502Z,8.93
2023-05-14T21:34:55.187Z,9.43
2023-05-14T21:37:27.904Z,9.77
2023-05-14T21:40:00.580Z,8.95
2023-05-14T21:42:33.067Z,9.40
2023-05-14T21:45:06.238Z,9.40
2023-05-14T21:47:39.213Z,9.13
2023-05-14T21:50:13.017Z,9.20
2023-05-14T21:52:48.258Z,9.85
2023-05-14T21:55:20.934Z,9.25
2023-05-14T21:57:53.519Z,9.43
2023-05-14T22:00:26.027Z,9.77
2023-05-14T22:02:58.876Z,8.93
2023-05-14T22:05:31.384Z,9.38
2023-05-14T22:08:03.989Z,8.98
2023-05-14T22:10:36.693Z,10.30
2023-05-14T22:13:09.106Z,10.18
2023-05-14T22:15:41.555Z,9.48
2023-05-14T22:18:15.489Z,10.38
2023-05-14T22:20:48.403Z,10.13
2023-05-14T22:23:20.873Z,9.93
2023-05-14T22:25:53.404Z,10.35
2023-05-14T22:28:25.870Z,10.00
2023-05-14T22:30:59.931Z,10.52
2023-05-14T22:33:33.193Z,11.20
2023-05-14T22:36:06.958Z,10.60
2023-05-14T22:38:41.182Z,9.93
2023-05-14T22:41:13.756Z,9.35
2023-05-14T22:43:48.586Z,11.50
2023-05-14T22:46:21.334Z,10.15
2023-05-14T22:48:53.859Z,10.40
2023-05-14T22:51:26.324Z,11.80
2023-05-14T22:53:58.701Z,10.23
2023-05-14T22:56:31.614Z,10.23
2023-05-14T22:59:04.442Z,11.45
2023-05-14T23:01:36.904Z,10.52
2023-05-14T23:04:09.521Z,11.50
2023-05-14T23:06:41.984Z,11.30
2023-05-14T23:09:14.398Z,11.05
2023-05-14T23:11:46.964Z,10.68
2023-05-14T23:14:19.599Z,11.18
2023-05-14T23:16:52.087Z,10.85
2023-05-14T23:19:24.652Z,11.30
2023-05-14T23:21:58.302Z,11.43
2023-05-14T23:24:30.851Z,11.27
2023-05-14T23:27:03.387Z,10.43
2023-05-14T23:29:35.821Z,11.65
2023-05-14T23:32:09.539Z,12.00
2023-05-14T23:34:41.958Z,12.30
2023-05-14T23:37:14.576Z,13.07
2023-05-14T23:39:47.140Z,12.02
2023-05-14T23:42:20.291Z,12.65
2023-05-14T23:44:52.689Z,10.43
2023-05-14T23:47:25.270Z,12.13
2023-05-14T23:49:57.886Z,12.57
2023-05-14T23:52:30.392Z,12.38
2023-05-14T23:55:03.017Z,12.85
2023-05-14T23:57:36.005Z,11.55
